createdAt,value
2019-03-10T00:02:26.930Z,100658.77
2019-03-10T00:04:54.146Z,100658.25
2019-03-10T00:07:21.395Z,100653.17
2019-03-10T00:09:48.637Z,100653.17
2019-03-10T00:12:15.877Z,100658.27
2019-03-10T00:14:43.126Z,100664.89
2019-03-10T00:17:10.341Z,100664.89
2019-03-10T00:19:37.529Z,100667.55
2019-03-10T00:22:04.803Z,100664.91
2019-03-10T00:24:32.048Z,100666.61
2019-03-10T00:26:59.228Z,100666.61
2019-03-10T00:29:26.461Z,100659.73
2019-03-10T00:31:53.678Z,100659.73
2019-03-10T00:34:20.940Z,100675.34
2019-03-10T00:36:48.162Z,100668.33
2019-03-10T00:39:33.212Z,100653.54
2019-03-10T00:42:34.461Z,100653.54
2019-03-10T00:45:30.192Z,100647.44
2019-03-10T00:48:38.093Z,100653.10
2019-03-10T00:51:45.129Z,100653.13
2019-03-10T00:54:12.398Z,100666.59
2019-03-10T00:56:39.585Z,100659.56
2019-03-10T00:59:06.895Z,100664.34
2019-03-10T01:01:34.054Z,100665.28
2019-03-10T01:04:01.291Z,100665.73
2019-03-10T01:06:28.517Z,100663.56
2019-03-10T01:08:55.711Z,100656.16
2019-03-10T01:11:22.953Z,100656.52
2019-03-10T01:13:50.142Z,100656.52
2019-03-10T01:16:17.367Z,100654.31
2019-03-10T01:18:44.619Z,100652.19
2019-03-10T01:21:11.883Z,100659.15
2019-03-10T01:23:39.100Z,100664.00
2019-03-10T01:26:06.345Z,100658.42
2019-03-10T01:28:33.560Z,100652.66
2019-03-10T01:31:24.824Z,100657.48
2019-03-10T01:34:35.885Z,100646.56
2019-03-10T01:37:03.126Z,100642.64
2019-03-10T01:39:30.317Z,100657.08
2019-03-10T01:41:57.545Z,100643.15
2019-03-10T01:44:24.736Z,100650.13
2019-03-10T01:46:51.960Z,100646.59
2019-03-10T01:49:19.179Z,100637.85
2019-03-10T01:51:46.439Z,100639.16
2019-03-10T01:54:13.711Z,100640.03
2019-03-10T01:56:41.048Z,100629.08
2019-03-10T01:59:08.283Z,100622.91
2019-03-10T02:01:35.643Z,100625.57
2019-03-10T02:04:02.895Z,100626.47
2019-03-10T02:06:30.098Z,100626.47
2019-03-10T02:08:57.330Z,100619.12
2019-03-10T02:11:24.537Z,100619.12
2019-03-10T02:13:51.766Z,100620.86
2019-03-10T02:16:18.971Z,100621.24
2019-03-10T02:18:46.187Z,100612.98
2019-03-10T02:21:13.410Z,100612.98
2019-03-10T02:23:40.638Z,100606.53
2019-03-10T02:26:07.806Z,100613.40
2019-03-10T02:28:35.027Z,100600.35
2019-03-10T02:31:02.390Z,100600.35
2019-03-10T02:33:29.618Z,100604.25
2019-03-10T02:35:56.811Z,100586.94
2019-03-10T02:38:24.045Z,100588.20
2019-03-10T02:40:51.271Z,100588.20
2019-03-10T02:43:18.479Z,100583.90
2019-03-10T02:45:45.660Z,100583.90
2019-03-10T02:48:12.875Z,100588.72
2019-03-10T02:50:40.158Z,100588.72
2019-03-10T02:53:07.300Z,100574.75
2019-03-10T02:55:34.536Z,100580.41
2019-03-10T02:58:01.774Z,100571.34
2019-03-10T03:00:29.042Z,100571.34
2019-03-10T03:02:56.210Z,100582.16
2019-03-10T03:05:23.479Z,100582.61
2019-03-10T03:07:50.699Z,100581.28
2019-03-10T03:10:17.907Z,100581.28
2019-03-10T03:12:45.137Z,100585.64
2019-03-10T03:15:12.344Z,100587.80
2019-03-10T03:17:39.504Z,100584.33
2019-03-10T03:20:07.559Z,100579.10
2019-03-10T03:22:34.782Z,100579.10
2019-03-10T03:25:02.085Z,100571.27
2019-03-10T03:27:29.390Z,100580.38
2019-03-10T03:29:56.602Z,100580.38
2019-03-10T03:32:23.876Z,100583.02
2019-03-10T03:34:51.085Z,100575.67
2019-03-10T03:37:20.401Z,100575.67
2019-03-10T03:39:49.577Z,100577.80
2019-03-10T03:42:16.817Z,100574.31
2019-03-10T03:44:44.017Z,100576.44
2019-03-10T03:47:11.376Z,100573.30
2019-03-10T03:49:38.567Z,100573.30
2019-03-10T03:52:05.793Z,100568.08
2019-03-10T03:54:32.980Z,100562.83
2019-03-10T03:57:00.213Z,100567.23
2019-03-10T03:59:27.436Z,100562.41
2019-03-10T04:02:09.525Z,100559.80
2019-03-10T04:04:36.761Z,100552.86
2019-03-10T04:07:04.028Z,100554.22
2019-03-10T04:09:31.257Z,100546.87
2019-03-10T04:11:58.494Z,100546.87
2019-03-10T04:14:25.735Z,100545.47
2019-03-10T04:16:52.935Z,100545.02
2019-03-10T04:19:20.137Z,100534.89
2019-03-10T04:21:47.387Z,100534.89
2019-03-10T04:24:14.574Z,100532.16
2019-03-10T04:26:41.854Z,100518.91
2019-03-10T04:29:09.105Z,100518.91
2019-03-10T04:31:36.322Z,100514.94
2019-03-10T04:34:03.591Z,100522.26
2019-03-10T04:36:30.823Z,100522.93
2019-03-10T04:38:58.035Z,100509.82
2019-03-10T04:41:25.272Z,100509.82
2019-03-10T04:43:52.551Z,100497.78
2019-03-10T04:46:19.765Z,100497.78
2019-03-10T04:48:47.055Z,100493.30
2019-03-10T04:51:14.216Z,100496.34
2019-03-10T04:53:41.457Z,100489.75
2019-03-10T04:56:19.475Z,100483.45
2019-03-10T04:58:49.281Z,100483.45
2019-03-10T05:01:16.488Z,100480.37
2019-03-10T05:03:43.687Z,100483.33
2019-03-10T05:06:10.927Z,100483.33
2019-03-10T05:08:38.163Z,100481.92
2019-03-10T05:11:05.366Z,100481.92
2019-03-10T05:13:32.596Z,100473.23
2019-03-10T05:15:59.838Z,100474.97
2019-03-10T05:18:27.082Z,100474.91
2019-03-10T05:20:54.275Z,100475.31
2019-03-10T05:23:31.710Z,100473.23
2019-03-10T05:25:58.990Z,100472.36
2019-03-10T05:28:26.477Z,100454.53
2019-03-10T05:30:53.713Z,100454.53
2019-03-10T05:33:21.002Z,100455.71
2019-03-10T05:35:48.262Z,100449.48
2019-03-10T05:38:15.473Z,100441.63
2019-03-10T05:40:42.688Z,100441.63
2019-03-10T05:43:09.893Z,100434.34
2019-03-10T05:45:37.100Z,100431.69
2019-03-10T05:48:04.287Z,100415.08
2019-03-10T05:50:31.501Z,100416.75
2019-03-10T05:53:00.689Z,100399.34
2019-03-10T05:55:27.843Z,100403.23
2019-03-10T05:57:55.017Z,100400.47
2019-03-10T06:00:22.237Z,100391.75
2019-03-10T06:02:49.499Z,100388.59
2019-03-10T06:05:16.715Z,100388.59
2019-03-10T06:07:43.933Z,100389.86
2019-03-10T06:10:11.158Z,100380.70
2019-03-10T06:12:38.392Z,100368.48
2019-03-10T06:15:05.712Z,100368.48
2019-03-10T06:17:32.919Z,100359.32
2019-03-10T06:20:00.380Z,100370.05
2019-03-10T06:22:27.678Z,100370.05
2019-03-10T06:24:54.909Z,100365.72
2019-03-10T06:27:22.178Z,100363.91
2019-03-10T06:29:49.750Z,100355.65
2019-03-10T06:32:16.926Z,100351.25
2019-03-10T06:34:44.197Z,100357.25
2019-03-10T06:37:11.423Z,100352.85
2019-03-10T06:39:38.631Z,100348.92
2019-03-10T06:42:05.982Z,100348.52
2019-03-10T06:44:33.207Z,100345.43
2019-03-10T06:47:00.401Z,100342.81
2019-03-10T06:49:27.636Z,100344.08
2019-03-10T06:51:54.854Z,100347.10
2019-03-10T06:54:22.090Z,100342.23
2019-03-10T06:56:49.354Z,100342.23
2019-03-10T06:59:16.513Z,100339.57
2019-03-10T07:01:43.759Z,100339.46
2019-03-10T07:04:10.982Z,100338.11
2019-03-10T07:06:38.439Z,100336.36
2019-03-10T07:09:05.725Z,100332.36
2019-03-10T07:11:32.967Z,100322.40
2019-03-10T07:14:00.195Z,100326.25
2019-03-10T07:16:27.421Z,100319.63
2019-03-10T07:18:54.664Z,100309.15
2019-03-10T07:21:21.868Z,100309.15
2019-03-10T07:23:49.100Z,100308.23
2019-03-10T07:26:16.287Z,100302.09
2019-03-10T07:28:49.294Z,100291.93
2019-03-10T07:31:29.125Z,100291.93
2019-03-10T07:34:03.881Z,100278.91
2019-03-10T07:36:53.248Z,100280.55
2019-03-10T07:39:40.007Z,100279.62
2019-03-10T07:42:32.861Z,100277.45
2019-03-10T07:45:22.487Z,100269.47
2019-03-10T07:48:07.908Z,100262.36
2019-03-10T07:50:57.112Z,100271.92
2019-03-10T07:53:31.653Z,100263.55
2019-03-10T07:56:11.399Z,100266.09
2019-03-10T07:58:49.730Z,100264.73
2019-03-10T08:01:31.363Z,100263.38
2019-03-10T08:04:14.201Z,100260.28
2019-03-10T08:06:58.787Z,100247.50
2019-03-10T08:09:42.600Z,100249.63
2019-03-10T08:12:35.534Z,100245.10
2019-03-10T08:15:28.707Z,100238.42
2019-03-10T08:18:18.127Z,100231.44
2019-03-10T08:21:03.616Z,100229.69
2019-03-10T08:23:45.572Z,100226.98
2019-03-10T08:26:35.252Z,100224.80
2019-03-10T08:29:37.271Z,100221.70
2019-03-10T08:32:12.613Z,100220.30
2019-03-10T08:35:02.211Z,100218.95
2019-03-10T08:37:55.047Z,100222.83
2019-03-10T08:40:56.729Z,100225.45
2019-03-10T08:43:58.568Z,100224.54
2019-03-10T08:46:42.883Z,100221.41
2019-03-10T08:49:45.634Z,100219.20
2019-03-10T08:52:16.832Z,100220.05
2019-03-10T08:54:50.717Z,100214.36
2019-03-10T08:57:40.509Z,100219.56
2019-03-10T09:00:31.017Z,100212.95
2019-03-10T09:03:08.402Z,100215.06
2019-03-10T09:05:58.190Z,100207.89
2019-03-10T09:08:50.716Z,100199.23
2019-03-10T09:11:35.980Z,100188.70
2019-03-10T09:14:21.554Z,100178.14
2019-03-10T09:17:08.290Z,100172.75
2019-03-10T09:19:47.615Z,100166.94
2019-03-10T09:22:37.402Z,100171.47
2019-03-10T09:25:11.998Z,100167.84
2019-03-10T09:27:56.383Z,100159.28
2019-03-10T09:30:46.211Z,100150.97
2019-03-10T09:33:30.547Z,100146.86
2019-03-10T09:36:09.527Z,100145.39
2019-03-10T09:38:56.274Z,100153.03
2019-03-10T09:41:41.561Z,100139.77
2019-03-10T09:44:28.300Z,100142.84
2019-03-10T09:47:04.140Z,100141.48
2019-03-10T09:49:53.594Z,100128.36
2019-03-10T09:52:43.299Z,100130.59
2019-03-10T09:55:36.095Z,100122.77
2019-03-10T09:58:35.032Z,100111.02
2019-03-10T10:01:30.630Z,100115.39
2019-03-10T10:04:17.418Z,100107.47
2019-03-10T10:06:51.297Z,100100.52
2019-03-10T10:09:43.410Z,100095.67
2019-03-10T10:12:33.069Z,100093.86
2019-03-10T10:15:25.860Z,100093.78
2019-03-10T10:18:18.267Z,100093.18
2019-03-10T10:21:10.747Z,100088.61
2019-03-10T10:23:57.258Z,100080.72
2019-03-10T10:26:46.846Z,100081.11
2019-03-10T10:29:36.520Z,100083.42
2019-03-10T10:32:32.227Z,100083.42
2019-03-10T10:35:19.002Z,100083.86
2019-03-10T10:38:05.530Z,100082.11
2019-03-10T10:41:03.221Z,100083.42
2019-03-10T10:43:42.527Z,100078.66
2019-03-10T10:46:35.219Z,100077.25
2019-03-10T10:49:31.158Z,100072.85
2019-03-10T10:52:10.017Z,100066.10
2019-03-10T10:54:56.731Z,100061.48
2019-03-10T10:57:37.140Z,100049.45
2019-03-10T11:00:14.972Z,100044.01
2019-03-10T11:03:00.146Z,100042.98
2019-03-10T11:05:44.302Z,100035.10
2019-03-10T11:08:25.984Z,100024.38
2019-03-10T11:11:20.687Z,100015.44
2019-03-10T11:14:25.603Z,100008.48
2019-03-10T11:17:18.137Z,100010.78
2019-03-10T11:20:01.732Z,100012.92
2019-03-10T11:22:40.937Z,100015.89
2019-03-10T11:25:27.706Z,100011.17
2019-03-10T11:28:09.984Z,100009.91
2019-03-10T11:30:55.274Z,100004.72
2019-03-10T11:33:44.958Z,100001.70
2019-03-10T11:36:34.637Z,100001.17
2019-03-10T11:39:17.805Z,100001.06
2019-03-10T11:41:57.068Z,99996.04
2019-03-10T11:44:55.881Z,99988.94
2019-03-10T11:47:28.776Z,99984.02
2019-03-10T11:50:10.535Z,99983.91
2019-03-10T11:52:55.067Z,99983.47
2019-03-10T11:55:47.801Z,99973.53
2019-03-10T11:58:32.590Z,99967.94
2019-03-10T12:01:22.003Z,99972.36
2019-03-10T12:04:21.007Z,99971.11
2019-03-10T12:07:07.756Z,99968.92
2019-03-10T12:09:34.977Z,99964.00
2019-03-10T12:12:02.195Z,99967.55
2019-03-10T12:14:29.376Z,99958.03
2019-03-10T12:16:56.564Z,99946.88
2019-03-10T12:19:23.787Z,99938.52
2019-03-10T12:21:50.970Z,99929.76
2019-03-10T12:24:18.175Z,99923.53
2019-03-10T12:26:45.408Z,99923.91
2019-03-10T12:29:12.659Z,99919.53
2019-03-10T12:31:39.826Z,99912.44
2019-03-10T12:34:07.037Z,99909.42
2019-03-10T12:36:34.281Z,99912.11
2019-03-10T12:39:01.551Z,99908.61
2019-03-10T12:41:28.762Z,99909.09
2019-03-10T12:43:55.972Z,99891.97
2019-03-10T12:46:23.139Z,99881.86
2019-03-10T12:48:50.344Z,99877.06
2019-03-10T12:51:17.545Z,99882.79
2019-03-10T12:53:44.765Z,99880.28
2019-03-10T12:56:11.979Z,99879.08
2019-03-10T12:58:39.171Z,99878.31
2019-03-10T13:01:06.955Z,99868.31
2019-03-10T13:03:34.259Z,99860.05
2019-03-10T13:06:01.675Z,99851.26
2019-03-10T13:08:28.922Z,99836.83
2019-03-10T13:10:56.107Z,99835.52
2019-03-10T13:13:23.340Z,99839.84
2019-03-10T13:15:50.615Z,99841.14
2019-03-10T13:18:17.804Z,99834.14
2019-03-10T13:20:45.074Z,99834.59
2019-03-10T13:23:12.266Z,99840.76
2019-03-10T13:25:39.463Z,99839.98
2019-03-10T13:28:06.655Z,99841.02
2019-03-10T13:30:33.933Z,99843.34
2019-03-10T13:33:01.152Z,99845.16
2019-03-10T13:35:28.333Z,99842.14
2019-03-10T13:37:55.651Z,99848.37
2019-03-10T13:40:22.811Z,99848.85
2019-03-10T13:42:50.039Z,99841.48
2019-03-10T13:45:17.250Z,99841.59
2019-03-10T13:47:44.461Z,99850.33
2019-03-10T13:50:11.839Z,99851.31
2019-03-10T13:52:39.073Z,99846.56
2019-03-10T13:55:06.529Z,99848.36
2019-03-10T13:57:33.729Z,99851.04
2019-03-10T14:00:01.026Z,99849.78
2019-03-10T14:02:28.236Z,99849.84
2019-03-10T14:04:55.432Z,99846.88
2019-03-10T14:07:22.691Z,99840.37
2019-03-10T14:09:49.878Z,99850.88
2019-03-10T14:12:17.109Z,99857.43
2019-03-10T14:14:44.342Z,99859.72
2019-03-10T14:17:11.517Z,99855.34
2019-03-10T14:19:38.747Z,99855.45
2019-03-10T14:22:05.974Z,99859.05
2019-03-10T14:24:33.157Z,99853.47
2019-03-10T14:27:00.438Z,99852.60
2019-03-10T14:29:27.622Z,99848.62
2019-03-10T14:31:54.876Z,99838.66
2019-03-10T14:34:22.120Z,99841.78
2019-03-10T14:36:49.390Z,99842.70
2019-03-10T14:39:16.615Z,99848.48
2019-03-10T14:41:43.802Z,99850.68
2019-03-10T14:44:11.046Z,99838.88
2019-03-10T14:46:38.222Z,99828.39
2019-03-10T14:49:05.554Z,99828.39
2019-03-10T14:51:32.791Z,99828.48
2019-03-10T14:54:00.004Z,99823.68
2019-03-10T14:56:27.525Z,99822.76
2019-03-10T14:58:54.731Z,99821.45
2019-03-10T15:01:22.436Z,99816.69
2019-03-10T15:03:49.826Z,99824.07
2019-03-10T15:06:17.084Z,99828.00
2019-03-10T15:08:46.354Z,99828.88
2019-03-10T15:11:13.517Z,99822.38
2019-03-10T15:13:40.739Z,99827.23
2019-03-10T15:16:07.904Z,99825.91
2019-03-10T15:18:35.106Z,99824.66
2019-03-10T15:21:02.323Z,99823.41
2019-03-10T15:23:29.550Z,99822.09
2019-03-10T15:25:56.797Z,99825.58
2019-03-10T15:28:24.110Z,99831.66
2019-03-10T15:30:51.303Z,99828.20
2019-03-10T15:33:18.861Z,99832.14
2019-03-10T15:35:46.088Z,99834.81
2019-03-10T15:38:13.277Z,99842.67
2019-03-10T15:40:40.535Z,99840.98
2019-03-10T15:43:07.727Z,99847.11
2019-03-10T15:45:35.011Z,99847.05
2019-03-10T15:48:02.192Z,99854.08
2019-03-10T15:50:29.421Z,99863.65
2019-03-10T15:52:56.622Z,99874.19
2019-03-10T15:55:23.878Z,99876.97
2019-03-10T15:57:51.179Z,99887.25
2019-03-10T16:00:18.894Z,99892.59
2019-03-10T16:02:46.093Z,99898.28
2019-03-10T16:05:13.293Z,99900.98
2019-03-10T16:07:41.462Z,99909.24
2019-03-10T16:10:09.030Z,99913.62
2019-03-10T16:12:36.235Z,99918.42
2019-03-10T16:15:03.928Z,99925.80
2019-03-10T16:17:31.151Z,99925.89
2019-03-10T16:19:58.335Z,99935.95
2019-03-10T16:22:25.587Z,99936.48
2019-03-10T16:24:52.804Z,99946.58
2019-03-10T16:27:20.021Z,99954.02
2019-03-10T16:29:47.226Z,99968.86
2019-03-10T16:32:14.521Z,99966.28
2019-03-10T16:34:41.707Z,99973.28
2019-03-10T16:37:08.923Z,99973.77
2019-03-10T16:39:36.120Z,99979.00
2019-03-10T16:42:03.371Z,99986.48
2019-03-10T16:44:30.551Z,99991.81
2019-03-10T16:46:57.888Z,100004.05
2019-03-10T16:49:25.056Z,100007.20
2019-03-10T16:51:52.261Z,100014.24
2019-03-10T16:54:19.532Z,100019.87
2019-03-10T16:56:46.740Z,100028.66
2019-03-10T16:59:14.007Z,100044.03
2019-03-10T17:01:41.234Z,100054.17
2019-03-10T17:04:08.474Z,100054.66
2019-03-10T17:06:35.680Z,100064.70
2019-03-10T17:09:14.566Z,100071.70
2019-03-10T17:11:41.823Z,100076.16
2019-03-10T17:14:09.022Z,100084.06
2019-03-10T17:16:36.240Z,100096.33
2019-03-10T17:19:03.441Z,100096.33
2019-03-10T17:21:30.761Z,100111.23
2019-03-10T17:23:57.927Z,100114.77
2019-03-10T17:26:25.127Z,100120.00
2019-03-10T17:28:52.403Z,100126.03
2019-03-10T17:31:19.639Z,100140.57
2019-03-10T17:33:46.830Z,100140.57
2019-03-10T17:36:14.072Z,100144.08
2019-03-10T17:38:41.287Z,100156.30
2019-03-10T17:41:08.479Z,100166.34
2019-03-10T17:43:35.819Z,100168.23
2019-03-10T17:46:03.014Z,100174.30
2019-03-10T17:48:30.226Z,100174.30
2019-03-10T17:50:57.438Z,100174.34
2019-03-10T17:53:24.661Z,100190.98
2019-03-10T17:55:52.000Z,100183.64
2019-03-10T17:58:19.198Z,100204.08
2019-03-10T18:00:46.395Z,100210.20
2019-03-10T18:03:13.625Z,100217.22
2019-03-10T18:05:40.858Z,100220.28
2019-03-10T18:08:08.075Z,100227.78
2019-03-10T18:10:35.314Z,100237.35
2019-03-10T18:13:02.530Z,100253.91
2019-03-10T18:15:29.849Z,100253.91
2019-03-10T18:17:57.055Z,100258.35
2019-03-10T18:20:24.250Z,100263.59
2019-03-10T18:22:51.480Z,100268.08
2019-03-10T18:25:18.673Z,100267.68
2019-03-10T18:27:46.205Z,100275.03
2019-03-10T18:30:15.260Z,100276.30
2019-03-10T18:32:42.461Z,100290.82
2019-03-10T18:35:12.673Z,100290.82
2019-03-10T18:37:39.841Z,100296.90
2019-03-10T18:40:10.721Z,100299.92
2019-03-10T18:42:38.029Z,100305.23
2019-03-10T18:45:05.428Z,100306.98
2019-03-10T18:47:32.622Z,100308.28
2019-03-10T18:50:00.008Z,100315.75
2019-03-10T18:52:27.215Z,100324.01
2019-03-10T18:54:54.475Z,100319.36
2019-03-10T18:57:21.777Z,100330.16
2019-03-10T18:59:48.980Z,100331.87
2019-03-10T19:02:16.204Z,100335.44
2019-03-10T19:04:43.498Z,100339.36
2019-03-10T19:07:10.702Z,100348.89
2019-03-10T19:09:37.934Z,100353.22
2019-03-10T19:12:05.159Z,100359.81
2019-03-10T19:14:32.381Z,100357.74
2019-03-10T19:16:59.655Z,100357.74
2019-03-10T19:19:26.880Z,100359.45
2019-03-10T19:21:54.283Z,100369.93
2019-03-10T19:24:21.494Z,100372.59
2019-03-10T19:26:48.687Z,100380.45
2019-03-10T19:29:16.034Z,100383.03
2019-03-10T19:31:43.202Z,100383.44
2019-03-10T19:34:10.417Z,100387.91
2019-03-10T19:36:37.662Z,100389.18
2019-03-10T19:39:05.884Z,100386.56
2019-03-10T19:41:33.067Z,100390.89
2019-03-10T19:44:00.310Z,100404.39
2019-03-10T19:46:27.636Z,100404.90
2019-03-10T19:48:54.850Z,100412.32
2019-03-10T19:51:22.044Z,100410.50
2019-03-10T19:53:49.247Z,100415.30
2019-03-10T19:56:16.466Z,100416.61
2019-03-10T19:58:43.670Z,100417.48
2019-03-10T20:01:10.887Z,100418.87
2019-03-10T20:03:38.098Z,100433.20
2019-03-10T20:06:05.341Z,100433.20
2019-03-10T20:08:32.755Z,100429.42
2019-03-10T20:10:59.938Z,100428.91
2019-03-10T20:13:27.119Z,100428.91
2019-03-10T20:15:54.330Z,100435.06
2019-03-10T20:18:21.555Z,100446.48
2019-03-10T20:20:48.824Z,100441.32
2019-03-10T20:23:16.000Z,100445.83
2019-03-10T20:25:43.164Z,100447.38
2019-03-10T20:28:10.384Z,100441.25
2019-03-10T20:30:37.678Z,100441.25
2019-03-10T20:33:05.010Z,100463.63
2019-03-10T20:35:33.753Z,100463.63
2019-03-10T20:38:01.063Z,100468.03
2019-03-10T20:40:28.355Z,100484.12
2019-03-10T20:42:55.579Z,100484.12
2019-03-10T20:45:24.515Z,100486.84
2019-03-10T20:47:51.917Z,100486.84
2019-03-10T20:50:19.171Z,100495.40
2019-03-10T20:52:46.359Z,100499.83
2019-03-10T20:55:13.749Z,100502.98
2019-03-10T20:57:40.983Z,100516.48
2019-03-10T21:00:11.200Z,100516.48
2019-03-10T21:02:38.498Z,100519.47
2019-03-10T21:05:07.212Z,100521.28
2019-03-10T21:07:34.365Z,100521.28
2019-03-10T21:10:01.564Z,100529.77
2019-03-10T21:12:39.468Z,100531.11
2019-03-10T21:14:57.971Z,100531.11
2019-03-10T21:17:25.178Z,100531.64
2019-03-10T21:19:52.517Z,100533.36
2019-03-10T21:22:20.997Z,100532.11
2019-03-10T21:24:48.467Z,100532.11
2019-03-10T21:27:15.731Z,100544.95
2019-03-10T21:29:43.025Z,100543.62
2019-03-10T21:32:10.191Z,100543.62
2019-03-10T21:34:37.543Z,100558.11
2019-03-10T21:37:09.015Z,100559.83
2019-03-10T21:39:36.264Z,100554.68
2019-03-10T21:42:03.526Z,100562.44
2019-03-10T21:44:30.762Z,100562.44
2019-03-10T21:46:57.944Z,100560.32
2019-03-10T21:49:25.143Z,100561.16
2019-03-10T21:51:52.363Z,100565.43
2019-03-10T21:54:19.567Z,100567.30
2019-03-10T21:56:46.792Z,100559.48
2019-03-10T21:59:14.064Z,100569.92
2019-03-10T22:01:41.282Z,100577.80
2019-03-10T22:04:08.540Z,100577.80
2019-03-10T22:06:35.763Z,100579.58
2019-03-10T22:09:04.708Z,100579.58
2019-03-10T22:11:32.140Z,100579.70
2019-03-10T22:13:59.366Z,100582.03
2019-03-10T22:16:26.566Z,100582.03
2019-03-10T22:18:53.761Z,100582.84
2019-03-10T22:21:21.007Z,100581.73
2019-03-10T22:23:58.449Z,100586.91
2019-03-10T22:26:17.354Z,100586.91
2019-03-10T22:28:44.510Z,100595.54
2019-03-10T22:31:11.765Z,100594.70
2019-03-10T22:33:38.962Z,100594.70
2019-03-10T22:36:06.221Z,100596.81
2019-03-10T22:38:33.491Z,100595.63
2019-03-10T22:41:00.722Z,100597.44
2019-03-10T22:43:27.925Z,100592.29
2019-03-10T22:45:55.203Z,100592.27
2019-03-10T22:48:22.399Z,100592.27
2019-03-10T22:50:49.743Z,100597.94
2019-03-10T22:53:16.952Z,100603.16
2019-03-10T22:55:44.179Z,100612.77
2019-03-10T22:58:11.358Z,100612.77
2019-03-10T23:00:45.864Z,100609.30
2019-03-10T23:03:13.110Z,100612.41
2019-03-10T23:05:41.567Z,100612.06
2019-03-10T23:08:09.103Z,100612.97
2019-03-10T23:10:36.320Z,100607.91
2019-03-10T23:13:03.545Z,100607.91
2019-03-10T23:15:30.774Z,100610.03
2019-03-10T23:17:57.934Z,100615.75
2019-03-10T23:20:25.169Z,100627.53
2019-03-10T23:22:52.351Z,100627.53
2019-03-10T23:25:19.610Z,100627.56
2019-03-10T23:27:47.032Z,100626.25
2019-03-10T23:30:14.308Z,100632.17
2019-03-10T23:32:41.598Z,100632.17
2019-03-10T23:35:08.941Z,100633.48
2019-03-10T23:37:36.126Z,100631.30
2019-03-10T23:40:03.803Z,100636.06
2019-03-10T23:42:31.189Z,100634.43
2019-03-10T23:44:58.428Z,100633.17
2019-03-10T23:47:25.702Z,100631.41
2019-03-10T23:49:52.996Z,100633.67
2019-03-10T23:52:20.179Z,100633.67
2019-03-10T23:54:47.440Z,100626.25
2019-03-10T23:57:14.679Z,100622.36
2019-03-10T23:59:41.920Z,100626.23
